MiSS Juanita — WDC3039 — position and weather

sailwx.info

Track history (hours):
 
Tides and Currents Weather Stations Pressure Air Temp Water Temp Dewpoint Dewpoint Depression Visibility Wind Speed Wind Dir Waves Ship Positions

MiSS Juanita

Owner: CENTRAL BOAT RENTALS, BERWICK, LA. More information available from US FCC via Universal Licensing System and Coast Guard Vessel Documentation Center.

Last reported at 2018-Feb-05 05:16 UTC. Time now 2018-Jun-22 05:29 UTC.
Position N 29°32' W 090°52'.
Warning: this ship's position is months out of date.

Length 9 m; draft 2.2 m.

Type: Tug. MMSI: 367001890.

Date/timePositionNaut miles runAvg speedWind from/ knotsBaromVisibWave heightAir tempDewpointWater temp
2018-Feb-05 05:16N 29°32' W 090°52'1 4.7
2018-Feb-05 05:00N 29°32' W 090°50'2 4.6
2018-Feb-05 04:30N 29°32' W 090°48'2 3.9
2018-Feb-05 04:00N 29°33' W 090°45'2 3.6
2018-Feb-05 03:30N 29°34' W 090°44'2 3.6
2018-Feb-05 03:00N 29°35' W 090°43'2 3.1
2018-Feb-05 02:30N 29°37' W 090°42'2 4.4
2018-Feb-05 02:00N 29°36' W 090°39'2 4.8
2018-Feb-05 01:30N 29°35' W 090°37'2 4.4
2018-Feb-05 01:00N 29°34' W 090°34'2 4.0
2018-Feb-05 00:30N 29°34' W 090°32'  
2018-Jan-28 14:39N 29°34' W 090°29'1 5.9
2018-Jan-28 14:30N 29°34' W 090°30'3 5.7
2018-Jan-28 14:00N 29°34' W 090°34'3 5.5
2018-Jan-28 13:30N 29°35' W 090°37'3 5.6
2018-Jan-28 13:00N 29°36' W 090°40'2 3.6
2018-Jan-28 12:29N 29°37' W 090°42'0 0.2
2018-Jan-28 12:00N 29°37' W 090°42'0 0.0
2018-Jan-28 11:30N 29°37' W 090°42'0 0.0
2018-Jan-28 11:00N 29°37' W 090°42'0 0.0
2018-Jan-28 10:30N 29°37' W 090°42'0 0.0
2018-Jan-28 10:00N 29°37' W 090°42'0 0.0
2018-Jan-28 09:30N 29°37' W 090°42'0 0.0
2018-Jan-28 09:00N 29°37' W 090°42'0 0.0
2018-Jan-28 08:27N 29°37' W 090°42'0 0.0
2018-Jan-28 08:00N 29°37' W 090°42'0 0.0
2018-Jan-28 07:30N 29°37' W 090°42'0 0.0
2018-Jan-28 06:59N 29°37' W 090°42'0 1.0
2018-Jan-28 06:30N 29°37' W 090°42'2 3.9
2018-Jan-28 06:00N 29°35' W 090°43'2 4.7
2018-Jan-28 05:30N 29°33' W 090°45'2 4.3
2018-Jan-28 05:00N 29°32' W 090°47'  
Track history (hours):
 
Tides and Currents Weather Stations Pressure Air Temp Water Temp Dewpoint Dewpoint Depression Visibility Wind Speed Wind Dir Waves Ship Positions

MiSS Juanita

Owner: CENTRAL BOAT RENTALS, BERWICK, LA. More information available from US FCC via Universal Licensing System and Coast Guard Vessel Documentation Center.

Last reported at 2018-Feb-05 05:16 UTC. Time now 2018-Jun-22 05:29 UTC.
Position N 29°32' W 090°52'.
Warning: this ship's position is months out of date.

Length 9 m; draft 2.2 m.

Type: Tug. MMSI: 367001890.

Date/timePositionNaut miles runAvg speedWind from/ knotsBaromVisibWave heightAir tempDewpointWater temp
2018-Feb-05 05:16N 29°32' W 090°52'1 4.7
2018-Feb-05 05:00N 29°32' W 090°50'2 4.6
2018-Feb-05 04:30N 29°32' W 090°48'2 3.9
2018-Feb-05 04:00N 29°33' W 090°45'2 3.6
2018-Feb-05 03:30N 29°34' W 090°44'2 3.6
2018-Feb-05 03:00N 29°35' W 090°43'2 3.1
2018-Feb-05 02:30N 29°37' W 090°42'2 4.4
2018-Feb-05 02:00N 29°36' W 090°39'2 4.8
2018-Feb-05 01:30N 29°35' W 090°37'2 4.4
2018-Feb-05 01:00N 29°34' W 090°34'2 4.0
2018-Feb-05 00:30N 29°34' W 090°32'  
2018-Jan-28 14:39N 29°34' W 090°29'1 5.9
2018-Jan-28 14:30N 29°34' W 090°30'3 5.7
2018-Jan-28 14:00N 29°34' W 090°34'3 5.5
2018-Jan-28 13:30N 29°35' W 090°37'3 5.6
2018-Jan-28 13:00N 29°36' W 090°40'2 3.6
2018-Jan-28 12:29N 29°37' W 090°42'0 0.2
2018-Jan-28 12:00N 29°37' W 090°42'0 0.0
2018-Jan-28 11:30N 29°37' W 090°42'0 0.0
2018-Jan-28 11:00N 29°37' W 090°42'0 0.0
2018-Jan-28 10:30N 29°37' W 090°42'0 0.0
2018-Jan-28 10:00N 29°37' W 090°42'0 0.0
2018-Jan-28 09:30N 29°37' W 090°42'0 0.0
2018-Jan-28 09:00N 29°37' W 090°42'0 0.0
2018-Jan-28 08:27N 29°37' W 090°42'0 0.0
2018-Jan-28 08:00N 29°37' W 090°42'0 0.0
2018-Jan-28 07:30N 29°37' W 090°42'0 0.0
2018-Jan-28 06:59N 29°37' W 090°42'0 1.0
2018-Jan-28 06:30N 29°37' W 090°42'2 3.9
2018-Jan-28 06:00N 29°35' W 090°43'2 4.7
2018-Jan-28 05:30N 29°33' W 090°45'2 4.3
2018-Jan-28 05:00N 29°32' W 090°47'  

Dump ship's entire track history